Time;durP1;ratioP1;P1;durP2;ratioP2;P2;SDS_P1;SDS_P2;PMS_P1;PMS_P2;Temp;Humidity;BMP_temperature;BMP_pressure;BME280_temperature;BME280_humidity;BME280_pressure;Samples;Min_cycle;Max_cycle;Signal;HPM_P1;HPM_P2
2021/08/10 00:00:34;;;;;;;9.05;4.78;;;;;;;;;;5099127;28;20494;-66
2021/08/10 00:03:18;;;;;;;9.98;4.68;;;;;;;;;;5098482;28;20118;-66
2021/08/10 00:05:48;;;;;;;7.97;4.68;;;;;;;;;;5097227;28;20408;-66
2021/08/10 00:08:17;;;;;;;8.75;4.68;;;;;;;;;;5095772;28;20051;-67
2021/08/10 00:10:44;;;;;;;10.38;4.75;;;;;;;;;;5095302;28;20040;-66
2021/08/10 00:13:12;;;;;;;7.45;4.40;;;;;;;;;;5092744;28;20075;-66
2021/08/10 00:15:38;;;;;;;10.65;4.82;;;;;;;;;;5098829;28;20123;-66
2021/08/10 00:18:05;;;;;;;9.98;4.63;;;;;;;;;;5097011;28;20055;-66
2021/08/10 00:20:31;;;;;;;7.70;4.32;;;;;;;;;;5096869;28;20055;-66
2021/08/10 00:22:57;;;;;;;11.25;5.05;;;;;;;;;;5096941;28;20039;-66
2021/08/10 00:25:24;;;;;;;15.98;4.90;;;;;;;;;;5094009;28;20032;-66
2021/08/10 00:27:50;;;;;;;8.43;4.78;;;;;;;;;;5096711;28;20056;-66
2021/08/10 00:30:17;;;;;;;10.45;4.55;;;;;;;;;;5097422;28;20562;-66
2021/08/10 00:32:43;;;;;;;10.48;4.30;;;;;;;;;;5096715;28;20048;-66
2021/08/10 00:35:10;;;;;;;12.00;5.65;;;;;;;;;;5078549;28;20074;-66
2021/08/10 00:37:36;;;;;;;7.93;4.63;;;;;;;;;;5077316;28;20122;-66
2021/08/10 00:40:03;;;;;;;8.18;4.55;;;;;;;;;;5075203;28;20044;-66
2021/08/10 00:42:29;;;;;;;7.50;4.32;;;;;;;;;;5114235;27;20492;-66
2021/08/10 00:44:56;;;;;;;9.60;4.95;;;;;;;;;;5078082;28;20131;-66
2021/08/10 00:47:22;;;;;;;9.82;4.88;;;;;;;;;;5076338;28;20130;-66
2021/08/10 00:49:49;;;;;;;7.38;4.25;;;;;;;;;;5094769;28;20067;-66
2021/08/10 00:52:16;;;;;;;10.23;5.03;;;;;;;;;;5074042;28;20088;-66
2021/08/10 00:54:42;;;;;;;9.68;4.85;;;;;;;;;;5079649;28;20044;-66
2021/08/10 00:57:12;;;;;;;7.90;4.75;;;;;;;;;;5077340;28;20087;-66
2021/08/10 00:59:40;;;;;;;14.63;4.75;;;;;;;;;;5078000;28;20131;-66
2021/08/10 01:02:07;;;;;;;9.02;4.85;;;;;;;;;;5078208;28;20392;-66
2021/08/10 01:04:35;;;;;;;11.40;4.70;;;;;;;;;;5059750;28;20044;-66
2021/08/10 01:07:14;;;;;;;8.57;4.70;;;;;;;;;;5074844;28;20479;-66
2021/08/10 01:10:05;;;;;;;9.27;4.38;;;;;;;;;;5121772;27;20407;-66
2021/08/10 01:12:31;;;;;;;;;;;;;;;;;;5114082;27;20070;-66
2021/08/10 01:15:06;;;;;;;8.30;3.80;;;;;;;;;;5077522;28;20006;-66
2021/08/10 01:17:35;;;;;;;7.70;4.38;;;;;;;;;;5078029;28;20044;-66
2021/08/10 01:20:02;;;;;;;8.10;4.35;;;;;;;;;;5077937;28;20058;-66
2021/08/10 01:22:34;;;;;;;6.57;3.65;;;;;;;;;;5075882;28;20051;-66
2021/08/10 01:25:03;;;;;;;10.63;5.00;;;;;;;;;;5093426;28;20048;-66
2021/08/10 01:27:47;;;;;;;6.40;3.97;;;;;;;;;;5078428;28;20048;-66
2021/08/10 01:30:20;;;;;;;6.95;4.55;;;;;;;;;;5077136;28;20067;-66
2021/08/10 01:32:49;;;;;;;7.72;4.63;;;;;;;;;;5077742;28;20423;-66
2021/08/10 01:35:19;;;;;;;7.82;4.68;;;;;;;;;;5077506;28;20083;-66
2021/08/10 01:37:47;;;;;;;8.68;4.75;;;;;;;;;;5077521;28;20518;-66
2021/08/10 01:40:14;;;;;;;6.60;4.60;;;;;;;;;;5056132;28;20067;-66
2021/08/10 01:42:45;;;;;;;10.30;4.60;;;;;;;;;;5087159;28;20043;-66
2021/08/10 01:45:13;;;;;;;8.70;4.72;;;;;;;;;;5078852;28;20048;-66
2021/08/10 01:47:43;;;;;;;10.20;4.53;;;;;;;;;;5077450;28;20125;-66
2021/08/10 01:50:12;;;;;;;10.60;5.15;;;;;;;;;;5095581;28;20044;-66
2021/08/10 01:52:47;;;;;;;6.65;4.40;;;;;;;;;;5077322;28;20059;-66
2021/08/10 01:55:14;;;;;;;9.48;5.25;;;;;;;;;;5072955;28;20044;-66
2021/08/10 01:57:41;;;;;;;9.63;4.55;;;;;;;;;;5082033;28;20058;-66
2021/08/10 02:00:11;;;;;;;9.45;4.25;;;;;;;;;;5083499;28;20078;-66
2021/08/10 02:02:40;;;;;;;9.80;4.53;;;;;;;;;;5102114;28;20068;-66
2021/08/10 02:05:22;;;;;;;8.45;4.05;;;;;;;;;;5082621;28;20500;-66
2021/08/10 02:07:51;;;;;;;6.68;4.30;;;;;;;;;;5082510;28;20115;-66
2021/08/10 02:10:18;;;;;;;9.05;4.38;;;;;;;;;;5079938;28;20040;-66
2021/08/10 02:12:45;;;;;;;6.95;4.47;;;;;;;;;;5084590;28;20507;-66
2021/08/10 02:15:13;;;;;;;16.13;4.70;;;;;;;;;;5082984;28;20598;-66
2021/08/10 02:17:51;;;;;;;9.77;4.22;;;;;;;;;;5083910;28;20060;-66
2021/08/10 02:20:29;;;;;;;5.97;4.15;;;;;;;;;;5083985;28;20048;-66
2021/08/10 02:22:56;;;;;;;8.15;4.13;;;;;;;;;;5083840;28;20490;-66
2021/08/10 02:25:24;;;;;;;10.88;4.57;;;;;;;;;;5080436;28;20111;-66
2021/08/10 02:28:02;;;;;;;9.88;5.07;;;;;;;;;;5080957;28;20558;-66
2021/08/10 02:30:34;;;;;;;6.72;4.75;;;;;;;;;;5085673;28;20051;-66
2021/08/10 02:33:05;;;;;;;8.43;4.13;;;;;;;;;;5083762;28;20076;-65
2021/08/10 02:35:33;;;;;;;7.30;4.45;;;;;;;;;;5083605;28;20050;-65
2021/08/10 02:38:03;;;;;;;8.50;4.78;;;;;;;;;;5083816;28;20494;-66
2021/08/10 02:40:31;;;;;;;11.95;4.75;;;;;;;;;;5081371;28;20494;-66
2021/08/10 02:43:00;;;;;;;8.10;4.45;;;;;;;;;;5081737;28;20052;-66
2021/08/10 02:45:27;;;;;;;6.75;4.35;;;;;;;;;;5083842;28;20054;-66
2021/08/10 02:47:58;;;;;;;7.60;4.13;;;;;;;;;;5082204;28;20084;-66
2021/08/10 02:50:29;;;;;;;6.13;4.00;;;;;;;;;;5083697;28;20048;-66
2021/08/10 02:52:56;;;;;;;7.97;4.63;;;;;;;;;;5101594;28;20048;-66
2021/08/10 02:55:26;;;;;;;6.97;4.38;;;;;;;;;;5080284;28;20050;-66
2021/08/10 02:58:00;;;;;;;7.38;4.18;;;;;;;;;;5100450;28;20083;-66
2021/08/10 03:00:29;;;;;;;8.73;4.15;;;;;;;;;;5117560;27;20044;-66
2021/08/10 03:03:02;;;;;;;9.13;4.53;;;;;;;;;;5101312;28;20078;-66
2021/08/10 03:05:29;;;;;;;6.32;3.97;;;;;;;;;;5083577;28;20068;-66
2021/08/10 03:07:57;;;;;;;7.75;4.35;;;;;;;;;;5083332;28;20131;-66
2021/08/10 03:10:25;;;;;;;9.50;5.03;;;;;;;;;;5076250;28;20109;-66
2021/08/10 03:12:52;;;;;;;16.90;4.88;;;;;;;;;;5079412;28;20101;-66
2021/08/10 03:15:25;;;;;;;10.30;4.85;;;;;;;;;;5080824;28;20051;-66
2021/08/10 03:17:52;;;;;;;9.73;4.20;;;;;;;;;;5079496;28;20059;-66
2021/08/10 03:20:20;;;;;;;6.75;4.45;;;;;;;;;;5078575;28;20067;-66
2021/08/10 03:22:48;;;;;;;8.65;3.95;;;;;;;;;;5088731;28;20078;-66
2021/08/10 03:25:16;;;;;;;7.97;5.00;;;;;;;;;;5076105;28;20049;-65
2021/08/10 03:27:43;;;;;;;5.28;3.55;;;;;;;;;;5106005;28;20063;-65
2021/08/10 03:30:10;;;;;;;8.00;3.92;;;;;;;;;;5077954;28;20076;-65
2021/08/10 03:32:37;;;;;;;6.05;3.90;;;;;;;;;;5096034;28;20075;-66
2021/08/10 03:35:04;;;;;;;8.02;4.03;;;;;;;;;;5079074;28;20035;-65
2021/08/10 03:37:31;;;;;;;8.07;4.75;;;;;;;;;;5077660;28;20102;-65
2021/08/10 03:39:58;;;;;;;8.02;3.90;;;;;;;;;;5076265;28;20044;-66
2021/08/10 03:42:25;;;;;;;9.27;4.32;;;;;;;;;;5080853;28;20044;-65
2021/08/10 03:44:52;;;;;;;7.57;3.70;;;;;;;;;;5079539;28;20044;-65
2021/08/10 03:47:19;;;;;;;8.27;4.70;;;;;;;;;;5079660;28;20055;-66
2021/08/10 03:49:46;;;;;;;6.50;4.18;;;;;;;;;;5062744;28;20051;-65
2021/08/10 03:52:14;;;;;;;6.47;4.07;;;;;;;;;;5075014;28;20044;-65
2021/08/10 03:54:44;;;;;;;6.93;3.80;;;;;;;;;;5081087;28;20064;-65
2021/08/10 03:57:14;;;;;;;5.53;3.83;;;;;;;;;;5113737;27;20496;-65
2021/08/10 03:59:41;;;;;;;6.82;4.45;;;;;;;;;;5113053;27;20048;-66
2021/08/10 04:02:09;;;;;;;5.53;4.03;;;;;;;;;;5078796;28;20051;-65
2021/08/10 04:04:38;;;;;;;9.25;4.55;;;;;;;;;;5076339;28;20048;-65
2021/08/10 04:07:05;;;;;;;8.88;4.05;;;;;;;;;;5075432;28;20052;-66
2021/08/10 04:09:34;;;;;;;7.88;4.50;;;;;;;;;;5081167;28;20445;-65
2021/08/10 04:12:03;;;;;;;9.25;4.22;;;;;;;;;;5079062;28;20072;-65
2021/08/10 04:14:33;;;;;;;11.43;4.78;;;;;;;;;;5078982;28;20144;-65
2021/08/10 04:17:02;;;;;;;7.22;4.75;;;;;;;;;;5097017;28;20518;-66
2021/08/10 04:19:30;;;;;;;9.88;4.47;;;;;;;;;;5076645;28;20040;-65
2021/08/10 04:21:57;;;;;;;8.90;5.40;;;;;;;;;;5076591;28;20044;-65
2021/08/10 04:24:23;;;;;;;7.45;4.22;;;;;;;;;;5080594;28;20051;-65
2021/08/10 04:26:51;;;;;;;13.82;4.32;;;;;;;;;;5078799;28;20048;-65
2021/08/10 04:29:18;;;;;;;7.10;4.45;;;;;;;;;;5078738;28;20044;-65
2021/08/10 04:31:46;;;;;;;11.77;4.82;;;;;;;;;;5078612;28;20040;-66
2021/08/10 04:34:13;;;;;;;10.48;4.70;;;;;;;;;;5058337;28;20052;-65
2021/08/10 04:36:40;;;;;;;9.90;4.65;;;;;;;;;;5097134;28;20123;-65
2021/08/10 04:39:06;;;;;;;7.25;3.95;;;;;;;;;;5096378;28;20075;-66
2021/08/10 04:41:32;;;;;;;7.80;3.97;;;;;;;;;;5075702;28;20070;-64
2021/08/10 04:44:01;;;;;;;7.80;4.32;;;;;;;;;;5075651;28;20051;-66
2021/08/10 04:46:29;;;;;;;11.55;3.88;;;;;;;;;;5075801;28;20043;-65
2021/08/10 04:48:56;;;;;;;5.50;4.22;;;;;;;;;;5077309;28;20060;-66
2021/08/10 04:51:23;;;;;;;6.70;4.20;;;;;;;;;;5077866;28;20075;-66
2021/08/10 04:53:49;;;;;;;6.80;4.60;;;;;;;;;;5078054;28;20055;-66
2021/08/10 04:56:16;;;;;;;9.55;4.60;;;;;;;;;;5078086;28;20507;-66
2021/08/10 04:58:42;;;;;;;9.13;4.35;;;;;;;;;;5077559;28;20138;-65
2021/08/10 05:01:08;;;;;;;6.85;3.97;;;;;;;;;;5074231;28;20106;-66
2021/08/10 05:03:40;;;;;;;10.30;4.47;;;;;;;;;;5080099;28;20511;-66
2021/08/10 05:06:07;;;;;;;6.43;4.20;;;;;;;;;;5077861;28;20135;-66
2021/08/10 05:08:34;;;;;;;9.68;4.38;;;;;;;;;;5078074;28;20419;-66
2021/08/10 05:11:01;;;;;;;6.32;3.80;;;;;;;;;;5073206;28;20063;-66
2021/08/10 05:13:29;;;;;;;7.13;4.15;;;;;;;;;;5072681;28;20066;-66
2021/08/10 05:15:55;;;;;;;8.30;3.70;;;;;;;;;;5076452;28;20495;-65
2021/08/10 05:18:24;;;;;;;12.50;4.13;;;;;;;;;;5077341;28;20088;-66
2021/08/10 05:20:50;;;;;;;10.30;5.55;;;;;;;;;;5100117;28;20051;-66
2021/08/10 05:23:16;;;;;;;8.52;4.32;;;;;;;;;;5060960;28;20070;-66
2021/08/10 05:25:43;;;;;;;12.30;4.82;;;;;;;;;;5077324;28;20491;-66
2021/08/10 05:28:11;;;;;;;7.40;4.78;;;;;;;;;;5073564;28;20059;-66
2021/08/10 05:30:37;;;;;;;7.22;3.50;;;;;;;;;;5079293;28;20125;-66
2021/08/10 05:33:07;;;;;;;7.35;3.40;;;;;;;;;;5077190;28;20128;-66
2021/08/10 05:35:35;;;;;;;8.32;3.80;;;;;;;;;;5061504;28;20040;-66
2021/08/10 05:38:02;;;;;;;7.47;3.45;;;;;;;;;;5076710;28;20077;-66
2021/08/10 05:40:31;;;;;;;7.18;2.92;;;;;;;;;;5089130;28;20070;-66
2021/08/10 05:43:00;;;;;;;5.63;2.95;;;;;;;;;;5074555;28;20091;-66
2021/08/10 05:45:26;;;;;;;11.48;3.85;;;;;;;;;;5075264;28;20127;-66
2021/08/10 05:47:53;;;;;;;8.13;2.90;;;;;;;;;;5060239;28;20067;-66
2021/08/10 05:50:22;;;;;;;5.75;3.30;;;;;;;;;;5093075;28;20088;-66
2021/08/10 05:52:49;;;;;;;2.97;2.10;;;;;;;;;;5100779;28;20056;-66
2021/08/10 05:55:16;;;;;;;6.18;2.83;;;;;;;;;;5068729;28;20496;-66
2021/08/10 05:57:46;;;;;;;4.20;2.60;;;;;;;;;;5057045;28;20136;-66
2021/08/10 06:00:13;;;;;;;8.07;2.80;;;;;;;;;;5061764;28;20041;-66
2021/08/10 06:02:55;;;;;;;3.58;2.58;;;;;;;;;;5069639;28;20047;-65
2021/08/10 06:05:23;;;;;;;4.72;2.40;;;;;;;;;;5064555;28;20453;-66
2021/08/10 06:07:49;;;;;;;3.70;2.47;;;;;;;;;;5070190;28;20070;-66
2021/08/10 06:10:16;;;;;;;5.00;2.50;;;;;;;;;;5070342;28;20045;-66
2021/08/10 06:12:45;;;;;;;3.90;2.60;;;;;;;;;;5068443;28;20094;-66
2021/08/10 06:15:12;;;;;;;5.57;2.10;;;;;;;;;;5068677;28;20071;-66
2021/08/10 06:17:39;;;;;;;5.57;2.42;;;;;;;;;;5065127;28;20086;-66
2021/08/10 06:20:10;;;;;;;3.50;1.90;;;;;;;;;;5063773;28;20500;-66
2021/08/10 06:22:37;;;;;;;3.63;1.75;;;;;;;;;;5067231;28;20042;-66
2021/08/10 06:25:04;;;;;;;3.20;1.67;;;;;;;;;;5064339;28;20079;-66
2021/08/10 06:27:30;;;;;;;5.03;2.30;;;;;;;;;;5066456;28;20072;-66
2021/08/10 06:29:57;;;;;;;5.53;2.22;;;;;;;;;;5067170;28;20463;-66
2021/08/10 06:32:24;;;;;;;3.13;1.60;;;;;;;;;;5086622;28;20055;-66
2021/08/10 06:34:50;;;;;;;5.00;1.90;;;;;;;;;;5077245;28;20048;-67
2021/08/10 06:37:25;;;;;;;4.55;2.00;;;;;;;;;;5088534;28;20052;-66
2021/08/10 06:39:52;;;;;;;4.07;1.63;;;;;;;;;;5093546;28;20503;-67
2021/08/10 06:42:19;;;;;;;5.68;2.00;;;;;;;;;;5073561;28;20068;-66
2021/08/10 06:44:50;;;;;;;6.05;1.98;;;;;;;;;;5083226;28;20048;-66
2021/08/10 06:47:16;;;;;;;3.10;1.92;;;;;;;;;;5071168;28;20416;-68
2021/08/10 06:49:43;;;;;;;3.08;1.63;;;;;;;;;;5071336;28;20407;-67
2021/08/10 06:52:10;;;;;;;6.13;1.98;;;;;;;;;;5070896;28;20107;-66
2021/08/10 06:54:39;;;;;;;2.83;1.60;;;;;;;;;;5073116;28;20079;-67
2021/08/10 06:57:06;;;;;;;2.97;1.70;;;;;;;;;;5070259;28;20048;-67
2021/08/10 06:59:35;;;;;;;4.95;1.73;;;;;;;;;;5063282;28;20613;-67
2021/08/10 07:02:04;;;;;;;3.22;1.92;;;;;;;;;;5074789;28;20105;-67
2021/08/10 07:04:30;;;;;;;3.08;1.65;;;;;;;;;;5074291;28;20045;-67
2021/08/10 07:06:57;;;;;;;4.50;1.98;;;;;;;;;;5074474;28;20091;-66
2021/08/10 07:09:23;;;;;;;2.92;1.70;;;;;;;;;;5072670;28;20110;-67
2021/08/10 07:11:50;;;;;;;3.65;2.05;;;;;;;;;;5073185;28;20113;-67
2021/08/10 07:14:16;;;;;;;5.65;1.80;;;;;;;;;;5076335;28;20393;-65
2021/08/10 07:16:46;;;;;;;3.28;1.70;;;;;;;;;;5072040;28;20427;-65
2021/08/10 07:19:13;;;;;;;3.60;1.90;;;;;;;;;;5063652;28;20113;-66
2021/08/10 07:21:41;;;;;;;8.15;1.88;;;;;;;;;;5089077;28;20272;-65
2021/08/10 07:24:16;;;;;;;2.60;1.90;;;;;;;;;;5074444;28;20040;-66
2021/08/10 07:26:44;;;;;;;3.65;2.08;;;;;;;;;;5078643;28;20067;-65
2021/08/10 07:29:10;;;;;;;3.85;2.42;;;;;;;;;;5074888;28;20040;-65
2021/08/10 07:31:36;;;;;;;3.65;1.83;;;;;;;;;;5073664;28;20052;-64
2021/08/10 07:34:07;;;;;;;2.78;1.90;;;;;;;;;;5071484;28;20045;-67
2021/08/10 07:36:36;;;;;;;8.02;1.90;;;;;;;;;;5090001;28;20052;-66
2021/08/10 07:39:03;;;;;;;4.30;2.40;;;;;;;;;;5076432;28;20098;-67
2021/08/10 07:41:30;;;;;;;2.72;1.83;;;;;;;;;;5076561;28;20052;-65
2021/08/10 07:43:56;;;;;;;6.00;2.30;;;;;;;;;;5069549;28;20045;-64
2021/08/10 07:46:23;;;;;;;2.65;2.08;;;;;;;;;;5070337;28;20040;-66
2021/08/10 07:48:51;;;;;;;3.30;1.80;;;;;;;;;;5068780;28;20091;-66
2021/08/10 07:51:19;;;;;;;3.42;1.83;;;;;;;;;;5100428;28;20106;-65
2021/08/10 07:53:46;;;;;;;5.55;1.95;;;;;;;;;;5066235;28;20055;-67
2021/08/10 07:56:13;;;;;;;4.45;2.10;;;;;;;;;;5063862;28;20076;-68
2021/08/10 07:58:40;;;;;;;4.82;2.20;;;;;;;;;;5065650;28;20529;-66
2021/08/10 08:01:06;;;;;;;5.15;1.95;;;;;;;;;;5102510;28;20055;-65
2021/08/10 08:03:33;;;;;;;3.78;2.00;;;;;;;;;;5068156;28;20393;-66
2021/08/10 08:05:59;;;;;;;3.38;1.90;;;;;;;;;;5048875;28;20052;-66
2021/08/10 08:08:27;;;;;;;7.82;2.08;;;;;;;;;;5065608;28;20519;-66
2021/08/10 08:10:55;;;;;;;8.90;2.30;;;;;;;;;;5065504;28;20142;-65
2021/08/10 08:13:24;;;;;;;5.05;2.15;;;;;;;;;;5068997;28;20102;-66
2021/08/10 08:15:50;;;;;;;4.35;2.42;;;;;;;;;;5067914;28;20396;-66
2021/08/10 08:18:18;;;;;;;6.75;2.47;;;;;;;;;;5067560;28;20088;-67
2021/08/10 08:20:48;;;;;;;3.95;1.95;;;;;;;;;;5073072;28;20048;-67
2021/08/10 08:23:17;;;;;;;4.07;2.03;;;;;;;;;;5085717;28;20047;-67
2021/08/10 08:25:44;;;;;;;4.10;1.92;;;;;;;;;;5086056;28;20483;-66
2021/08/10 08:28:11;;;;;;;3.60;2.00;;;;;;;;;;5071182;28;20040;-66
2021/08/10 08:30:38;;;;;;;4.55;1.67;;;;;;;;;;5075645;28;20098;-67
2021/08/10 08:33:06;;;;;;;4.03;1.90;;;;;;;;;;5057467;28;20076;-66
2021/08/10 08:35:33;;;;;;;4.35;2.08;;;;;;;;;;5072774;28;20048;-67
2021/08/10 08:38:00;;;;;;;3.80;2.40;;;;;;;;;;5072023;28;20101;-68
2021/08/10 08:40:26;;;;;;;3.53;1.83;;;;;;;;;;5070329;28;20051;-67
2021/08/10 08:42:53;;;;;;;3.50;1.77;;;;;;;;;;5070689;28;20473;-66
2021/08/10 08:45:19;;;;;;;3.38;1.50;;;;;;;;;;5108348;27;20415;-67
2021/08/10 08:47:51;;;;;;;6.45;1.63;;;;;;;;;;5079940;28;20101;-67
2021/08/10 08:50:18;;;;;;;3.42;1.10;;;;;;;;;;5078732;28;20086;-65
2021/08/10 08:52:46;;;;;;;5.10;1.50;;;;;;;;;;5073241;28;20059;-67
2021/08/10 08:55:15;;;;;;;3.15;1.58;;;;;;;;;;5053665;28;20103;-67
2021/08/10 08:57:41;;;;;;;9.23;1.73;;;;;;;;;;5116809;27;20136;-67
2021/08/10 09:00:08;;;;;;;3.25;1.35;;;;;;;;;;5074882;28;20074;-67
2021/08/10 09:02:36;;;;;;;3.40;1.70;;;;;;;;;;5074211;28;20087;-67
2021/08/10 09:05:03;;;;;;;9.23;1.50;;;;;;;;;;5068609;28;20040;-68
2021/08/10 09:07:30;;;;;;;4.13;1.42;;;;;;;;;;5068766;28;20071;-68
2021/08/10 09:10:07;;;;;;;2.75;1.48;;;;;;;;;;5071348;28;20079;-67
2021/08/10 09:12:50;;;;;;;2.83;1.80;;;;;;;;;;5068963;28;21848;-68
2021/08/10 09:15:36;;;;;;;3.17;1.63;;;;;;;;;;5074054;28;20052;-67
2021/08/10 09:18:08;;;;;;;3.90;1.30;;;;;;;;;;5072495;28;20064;-68
2021/08/10 09:20:35;;;;;;;3.75;1.77;;;;;;;;;;5073288;28;20115;-67
2021/08/10 09:23:02;;;;;;;2.60;1.50;;;;;;;;;;5073164;28;20078;-67
2021/08/10 09:25:40;;;;;;;7.00;1.80;;;;;;;;;;5057478;28;20086;-68
2021/08/10 09:28:08;;;;;;;2.55;1.92;;;;;;;;;;5069716;28;20488;-68
2021/08/10 09:30:36;;;;;;;4.35;1.95;;;;;;;;;;5074436;28;20049;-68
2021/08/10 09:33:04;;;;;;;4.57;1.73;;;;;;;;;;5073747;28;20075;-69
2021/08/10 09:35:36;;;;;;;2.92;1.70;;;;;;;;;;5073326;28;20044;-69
2021/08/10 09:38:05;;;;;;;2.63;1.70;;;;;;;;;;5072958;28;20055;-69
2021/08/10 09:40:33;;;;;;;2.58;1.80;;;;;;;;;;5054237;28;20064;-70
2021/08/10 09:43:25;;;;;;;5.28;2.72;;;;;;;;;;5069813;28;20079;-70
2021/08/10 09:46:14;;;;;;;2.58;1.70;;;;;;;;;;5100213;28;20052;-70
2021/08/10 09:48:42;;;;;;;4.18;1.42;;;;;;;;;;5075115;28;20043;-69
2021/08/10 09:51:13;;;;;;;5.18;1.58;;;;;;;;;;5083216;28;20067;-68
2021/08/10 09:53:40;;;;;;;2.20;1.48;;;;;;;;;;5066396;28;20055;-68
2021/08/10 09:56:08;;;;;;;6.55;2.00;;;;;;;;;;5059669;28;20499;-68
2021/08/10 09:58:53;;;;;;;5.28;2.13;;;;;;;;;;5050901;28;20401;-68
2021/08/10 10:01:51;;;;;;;3.83;1.70;;;;;;;;;;5034070;28;20050;-68
2021/08/10 10:04:17;;;;;;;3.00;1.65;;;;;;;;;;5030676;28;20060;-69
2021/08/10 10:06:49;;;;;;;2.80;1.58;;;;;;;;;;5053360;28;20093;-70
2021/08/10 10:09:16;;;;;;;4.10;2.00;;;;;;;;;;5054306;28;20605;-68
2021/08/10 10:11:44;;;;;;;15.05;2.35;;;;;;;;;;5072361;28;20128;-69
2021/08/10 10:14:14;;;;;;;3.80;1.70;;;;;;;;;;5077292;28;20084;-70
2021/08/10 10:16:42;;;;;;;4.22;1.90;;;;;;;;;;5048780;28;20455;-69
2021/08/10 10:19:10;;;;;;;3.72;1.80;;;;;;;;;;5051797;28;20175;-69
2021/08/10 10:21:47;;;;;;;4.10;1.90;;;;;;;;;;5057306;28;20049;-69
2021/08/10 10:24:14;;;;;;;3.45;2.00;;;;;;;;;;5055609;28;20072;-70
2021/08/10 10:26:45;;;;;;;3.80;2.03;;;;;;;;;;5065407;28;20133;-71
2021/08/10 10:29:12;;;;;;;7.95;1.80;;;;;;;;;;5066839;28;20143;-70
2021/08/10 10:31:39;;;;;;;3.05;1.85;;;;;;;;;;5054611;28;20115;-70
2021/08/10 10:34:05;;;;;;;2.60;1.92;;;;;;;;;;5057735;28;20061;-70
2021/08/10 10:36:32;;;;;;;2.78;2.00;;;;;;;;;;5058896;28;20139;-71
2021/08/10 10:38:59;;;;;;;2.90;1.60;;;;;;;;;;5061279;28;20499;-70
2021/08/10 10:41:29;;;;;;;2.38;1.50;;;;;;;;;;5058025;28;20135;-70
2021/08/10 10:43:56;;;;;;;1.95;1.60;;;;;;;;;;5056558;28;20072;-69
2021/08/10 10:46:23;;;;;;;2.78;1.70;;;;;;;;;;5054668;28;20072;-70
2021/08/10 10:48:50;;;;;;;3.67;1.73;;;;;;;;;;5071307;28;20044;-69
2021/08/10 10:51:22;;;;;;;2.92;1.70;;;;;;;;;;5058411;28;20385;-69
2021/08/10 10:53:48;;;;;;;8.00;1.90;;;;;;;;;;5093434;28;20056;-69
2021/08/10 10:56:26;;;;;;;2.35;1.60;;;;;;;;;;5098445;28;20056;-68
2021/08/10 10:58:56;;;;;;;3.33;2.17;;;;;;;;;;5098461;28;20070;-68
2021/08/10 11:01:23;;;;;;;4.57;2.30;;;;;;;;;;5076301;28;20044;-68
2021/08/10 11:04:06;;;;;;;5.00;2.03;;;;;;;;;;5082189;28;20055;-68
2021/08/10 11:06:32;;;;;;;4.13;1.95;;;;;;;;;;5098969;28;20088;-67
2021/08/10 11:08:59;;;;;;;4.88;2.00;;;;;;;;;;5105205;28;20047;-68
2021/08/10 11:11:40;;;;;;;2.53;1.90;;;;;;;;;;5100091;28;20469;-68
2021/08/10 11:14:27;;;;;;;4.50;2.17;;;;;;;;;;5087643;28;20135;-69
2021/08/10 11:17:08;;;;;;;5.00;1.90;;;;;;;;;;5097831;28;20050;-70
2021/08/10 11:19:43;;;;;;;2.35;1.75;;;;;;;;;;5096544;28;20071;-69
2021/08/10 11:22:15;;;;;;;4.30;2.38;;;;;;;;;;5099582;28;20048;-69
2021/08/10 11:24:52;;;;;;;3.83;2.53;;;;;;;;;;5091306;28;20071;-68
2021/08/10 11:27:34;;;;;;;3.35;2.13;;;;;;;;;;5090448;28;20135;-68
2021/08/10 11:30:01;;;;;;;3.80;2.50;;;;;;;;;;5079694;28;20048;-67
2021/08/10 11:32:46;;;;;;;4.93;2.63;;;;;;;;;;5099152;28;20127;-68
2021/08/10 11:35:33;;;;;;;4.20;2.75;;;;;;;;;;5105801;28;20081;-67
2021/08/10 11:38:20;;;;;;;3.10;2.40;;;;;;;;;;5097429;28;20122;-66
2021/08/10 11:40:50;;;;;;;4.72;2.67;;;;;;;;;;5094225;28;21529;-66
2021/08/10 11:43:16;;;;;;;3.67;2.70;;;;;;;;;;5091627;28;20040;-66
2021/08/10 11:45:42;;;;;;;6.28;3.20;;;;;;;;;;5109657;28;20051;-66
2021/08/10 11:48:09;;;;;;;10.35;3.40;;;;;;;;;;5097633;28;20080;-66
2021/08/10 11:50:35;;;;;;;9.70;2.75;;;;;;;;;;5077776;28;20044;-66
2021/08/10 11:53:02;;;;;;;5.97;2.60;;;;;;;;;;5095188;28;20557;-66
2021/08/10 11:55:33;;;;;;;8.10;3.47;;;;;;;;;;5093958;28;20082;-65
2021/08/10 11:58:00;;;;;;;12.68;3.63;;;;;;;;;;5095034;28;20123;-65
2021/08/10 12:00:28;;;;;;;5.65;3.38;;;;;;;;;;5096597;28;20434;-62
2021/08/10 12:02:55;;;;;;;10.07;4.55;;;;;;;;;;5096411;28;20078;-61
2021/08/10 12:05:21;;;;;;;11.32;4.43;;;;;;;;;;5096792;28;20051;-59
2021/08/10 12:07:48;;;;;;;21.02;4.75;;;;;;;;;;5096482;28;20039;-59
2021/08/10 12:10:20;;;;;;;9.82;4.22;;;;;;;;;;5092199;28;20059;-59
2021/08/10 12:12:47;;;;;;;6.53;2.67;;;;;;;;;;5106351;28;20169;-59
2021/08/10 12:15:32;;;;;;;10.80;3.10;;;;;;;;;;5097589;28;20483;-59
2021/08/10 12:17:59;;;;;;;8.75;4.20;;;;;;;;;;5096679;28;20044;-59
2021/08/10 12:20:25;;;;;;;13.20;4.20;;;;;;;;;;5095687;28;20051;-59
2021/08/10 12:23:08;;;;;;;8.75;4.35;;;;;;;;;;5096183;28;20506;-59
2021/08/10 12:25:35;;;;;;;7.72;3.65;;;;;;;;;;5094576;28;20462;-59
2021/08/10 12:28:10;;;;;;;23.25;3.97;;;;;;;;;;5094723;28;20406;-59
2021/08/10 12:30:42;;;;;;;8.13;3.60;;;;;;;;;;5079511;28;20068;-59
2021/08/10 12:33:14;;;;;;;6.32;3.80;;;;;;;;;;5094453;28;20055;-59
2021/08/10 12:35:56;;;;;;;8.95;3.63;;;;;;;;;;5095503;28;20129;-59
2021/08/10 12:38:25;;;;;;;5.18;2.97;;;;;;;;;;5095858;28;20134;-59
2021/08/10 12:40:52;;;;;;;18.27;3.65;;;;;;;;;;5096026;28;20075;-60
2021/08/10 12:43:22;;;;;;;4.72;3.25;;;;;;;;;;5090927;28;20047;-60
2021/08/10 12:45:48;;;;;;;5.68;2.80;;;;;;;;;;5100452;28;20048;-59
2021/08/10 12:48:28;;;;;;;4.78;3.00;;;;;;;;;;5095050;28;20059;-60
2021/08/10 12:50:59;;;;;;;6.53;3.25;;;;;;;;;;5095419;28;20442;-58
2021/08/10 12:53:33;;;;;;;4.72;2.70;;;;;;;;;;5095500;28;20079;-59
2021/08/10 12:56:00;;;;;;;5.63;3.53;;;;;;;;;;5095603;28;20387;-60
2021/08/10 12:58:27;;;;;;;5.10;3.22;;;;;;;;;;5093073;28;20067;-60
2021/08/10 13:01:01;;;;;;;5.35;3.33;;;;;;;;;;5076931;28;20079;-60
2021/08/10 13:03:27;;;;;;;5.57;3.40;;;;;;;;;;5096346;28;20499;-60
2021/08/10 13:05:56;;;;;;;5.10;3.63;;;;;;;;;;5097721;28;20047;-60
2021/08/10 13:08:22;;;;;;;6.80;3.15;;;;;;;;;;5094256;28;20483;-60
2021/08/10 13:10:49;;;;;;;19.70;4.28;;;;;;;;;;5093993;28;20445;-60
2021/08/10 13:13:27;;;;;;;4.85;4.00;;;;;;;;;;5074816;28;20133;-60
2021/08/10 13:15:55;;;;;;;4.55;3.30;;;;;;;;;;5103797;28;20040;-60
2021/08/10 13:18:23;;;;;;;5.05;3.60;;;;;;;;;;5096441;28;20059;-61
2021/08/10 13:21:00;;;;;;;9.07;4.88;;;;;;;;;;5095230;28;20067;-60
2021/08/10 13:23:28;;;;;;;9.18;4.35;;;;;;;;;;5095339;28;20533;-60
2021/08/10 13:25:59;;;;;;;8.35;5.63;;;;;;;;;;5094913;28;20036;-58
2021/08/10 13:28:26;;;;;;;9.07;5.30;;;;;;;;;;5092195;28;20047;-59
2021/08/10 13:31:09;;;;;;;9.07;5.10;;;;;;;;;;5095001;28;20044;-59
2021/08/10 13:33:48;;;;;;;13.45;6.15;;;;;;;;;;5096635;28;20067;-59
2021/08/10 13:36:14;;;;;;;9.50;6.07;;;;;;;;;;5092630;28;20055;-61
2021/08/10 13:38:40;;;;;;;8.38;5.35;;;;;;;;;;5087622;28;20048;-60
2021/08/10 13:41:06;;;;;;;7.72;6.07;;;;;;;;;;5086416;28;20047;-60
2021/08/10 13:43:33;;;;;;;7.13;5.00;;;;;;;;;;5088278;28;20479;-60
2021/08/10 13:45:59;;;;;;;10.38;6.00;;;;;;;;;;5088838;28;20050;-61
2021/08/10 13:48:25;;;;;;;11.25;5.93;;;;;;;;;;5076711;28;20052;-61
2021/08/10 13:50:52;;;;;;;9.30;5.53;;;;;;;;;;5059745;28;20095;-60
2021/08/10 13:53:18;;;;;;;7.45;5.47;;;;;;;;;;5077683;28;20056;-60
2021/08/10 13:55:45;;;;;;;12.82;5.65;;;;;;;;;;5086089;28;20491;-59
2021/08/10 13:58:11;;;;;;;9.00;6.63;;;;;;;;;;5105651;28;20153;-60
2021/08/10 14:00:38;;;;;;;10.30;6.22;;;;;;;;;;5069688;28;20119;-60
2021/08/10 14:03:04;;;;;;;9.48;6.85;;;;;;;;;;5085400;28;20135;-61
2021/08/10 14:05:31;;;;;;;7.13;6.13;;;;;;;;;;5085570;28;20071;-60
2021/08/10 14:07:57;;;;;;;8.05;5.28;;;;;;;;;;5085429;28;20051;-61
2021/08/10 14:10:23;;;;;;;8.32;5.55;;;;;;;;;;5088384;28;20044;-60
2021/08/10 14:12:50;;;;;;;9.98;6.07;;;;;;;;;;5090833;28;20483;-58
2021/08/10 14:15:16;;;;;;;8.05;5.68;;;;;;;;;;5086429;28;20054;-59
2021/08/10 14:17:42;;;;;;;12.85;5.97;;;;;;;;;;5101787;28;20498;-59
2021/08/10 14:20:09;;;;;;;7.20;5.95;;;;;;;;;;5103868;28;20040;-59
2021/08/10 14:22:35;;;;;;;10.27;6.40;;;;;;;;;;5092905;28;20044;-58
2021/08/10 14:25:05;;;;;;;10.07;6.32;;;;;;;;;;5092803;28;20044;-60
2021/08/10 14:27:32;;;;;;;10.13;6.13;;;;;;;;;;5095152;28;20080;-60
2021/08/10 14:30:01;;;;;;;9.20;5.72;;;;;;;;;;5093371;28;20040;-60
2021/08/10 14:32:27;;;;;;;8.85;6.25;;;;;;;;;;5094426;28;20044;-61
2021/08/10 14:34:53;;;;;;;9.50;6.15;;;;;;;;;;5094832;28;20042;-60
2021/08/10 14:37:20;;;;;;;8.40;6.57;;;;;;;;;;5090372;28;20073;-60
2021/08/10 14:39:46;;;;;;;8.77;7.13;;;;;;;;;;5096267;28;20045;-60
2021/08/10 14:42:12;;;;;;;10.40;6.95;;;;;;;;;;5092287;28;20059;-61
2021/08/10 14:44:38;;;;;;;12.10;5.88;;;;;;;;;;5094881;28;20047;-62
2021/08/10 14:47:05;;;;;;;10.60;6.90;;;;;;;;;;5093915;28;20125;-61
2021/08/10 14:49:32;;;;;;;9.95;7.88;;;;;;;;;;5101337;28;20044;-62
2021/08/10 14:51:58;;;;;;;8.63;7.43;;;;;;;;;;5092551;28;20059;-61